SIA146 YSSY-WSSS
Flight info
| Callsign | SIA146 |
|---|---|
| Flight time | N/A |
| Altitude | 34000 |
| Route | KADOM A576 AS A587 DEENO/N0494F360 A587 ONOXA G326 BLI M635 SUMDI/N0489F380 M635 SURGA T23 UGEBO UGEBO1B |
| Aircraft | B77W/H-SDE1E2E3FGHIJ2J3J4J5M1RWXY/LB1D1 |
Departure
| Time | 2026-05-07 10:58 |
|---|---|
| Airport | Sydney Kingsford Smith International Airport (YSSY) |
Arrival
| Time | N/A |
|---|---|
| Airport | Singapore Changi Airport (WSSS) |
| Time | Latitude | Longitude | Altitude | Speed | Heading |
|---|---|---|---|---|---|
| 2026-05-07 10:12 | -33.94037 | 151.16543 | 26 ft | 0 kts | 345° |
| 2026-05-07 10:43 | -33.94038 | 151.16543 | 26 ft | 1 kts | 345° |
| 2026-05-07 10:43 | -33.94062 | 151.16549 | 27 ft | 4 kts | 356° |
| 2026-05-07 10:43 | -33.94088 | 151.16548 | 31 ft | 4 kts | 13° |
| 2026-05-07 10:43 | -33.94113 | 151.16537 | 30 ft | 4 kts | 34° |
| 2026-05-07 10:44 | -33.94132 | 151.16516 | 31 ft | 4 kts | 61° |
| 2026-05-07 10:44 | -33.94138 | 151.16500 | 31 ft | 0 kts | 74° |
| 2026-05-07 10:49 | -33.94138 | 151.16501 | 31 ft | 0 kts | 74° |
| 2026-05-07 10:49 | -33.94137 | 151.16505 | 31 ft | 1 kts | 74° |
| 2026-05-07 10:49 | -33.94128 | 151.16544 | 32 ft | 10 kts | 75° |
| 2026-05-07 10:50 | -33.94107 | 151.16640 | 29 ft | 13 kts | 75° |
| 2026-05-07 10:50 | -33.94083 | 151.16744 | 29 ft | 13 kts | 75° |
| 2026-05-07 10:50 | -33.94059 | 151.16848 | 26 ft | 13 kts | 75° |
| 2026-05-07 10:50 | -33.94035 | 151.16955 | 29 ft | 13 kts | 74° |
| 2026-05-07 10:51 | -33.94010 | 151.17062 | 28 ft | 13 kts | 74° |
| 2026-05-07 10:51 | -33.93983 | 151.17174 | 28 ft | 14 kts | 74° |
| 2026-05-07 10:51 | -33.93968 | 151.17241 | 27 ft | 0 kts | 74° |
| 2026-05-07 10:52 | -33.93966 | 151.17245 | 27 ft | 1 kts | 74° |
| 2026-05-07 10:52 | -33.93959 | 151.17277 | 25 ft | 8 kts | 75° |
| 2026-05-07 10:52 | -33.93939 | 151.17366 | 26 ft | 13 kts | 75° |
| 2026-05-07 10:53 | -33.93913 | 151.17478 | 24 ft | 14 kts | 74° |
| 2026-05-07 10:53 | -33.93885 | 151.17600 | 27 ft | 16 kts | 74° |
| 2026-05-07 10:53 | -33.93852 | 151.17740 | 27 ft | 18 kts | 74° |
| 2026-05-07 10:53 | -33.93818 | 151.17884 | 30 ft | 18 kts | 73° |
| 2026-05-07 10:54 | -33.93783 | 151.18027 | 35 ft | 18 kts | 74° |
| 2026-05-07 10:54 | -33.93747 | 151.18178 | 35 ft | 20 kts | 74° |
| 2026-05-07 10:54 | -33.93707 | 151.18345 | 35 ft | 22 kts | 74° |
| 2026-05-07 10:54 | -33.93664 | 151.18528 | 35 ft | 22 kts | 74° |
| 2026-05-07 10:55 | -33.93627 | 151.18685 | 35 ft | 19 kts | 74° |
| 2026-05-07 10:55 | -33.93596 | 151.18827 | 35 ft | 14 kts | 81° |
| 2026-05-07 10:55 | -33.93627 | 151.18930 | 31 ft | 9 kts | 144° |
| 2026-05-07 10:55 | -33.93632 | 151.18934 | 30 ft | 0 kts | 150° |
| 2026-05-07 10:56 | -33.93635 | 151.18936 | 30 ft | 2 kts | 151° |
| 2026-05-07 10:57 | -33.93684 | 151.18957 | 29 ft | 11 kts | 165° |
| 2026-05-07 10:57 | -33.93749 | 151.18958 | 30 ft | 10 kts | 210° |
| 2026-05-07 10:57 | -33.93780 | 151.18886 | 31 ft | 10 kts | 255° |
| 2026-05-07 10:57 | -33.93849 | 151.18590 | 33 ft | 82 kts | 254° |
| 2026-05-07 10:58 | -33.94099 | 151.17530 | 57 ft | 175 kts | 254° |
| 2026-05-07 10:58 | -33.94435 | 151.16038 | 1102 ft | 185 kts | 256° |
| 2026-05-07 10:58 | -33.94690 | 151.14611 | 2397 ft | 169 kts | 253° |
| 2026-05-07 10:58 | -33.94925 | 151.13200 | 2973 ft | 177 kts | 252° |
| 2026-05-07 10:59 | -33.95187 | 151.11693 | 3400 ft | 190 kts | 252° |
| 2026-05-07 10:59 | -33.95475 | 151.10091 | 3900 ft | 200 kts | 251° |
| 2026-05-07 10:59 | -33.95790 | 151.08422 | 4432 ft | 209 kts | 250° |
| 2026-05-07 10:59 | -33.96137 | 151.06723 | 5110 ft | 209 kts | 249° |
| 2026-05-07 11:00 | -33.96510 | 151.05035 | 5815 ft | 207 kts | 248° |
| 2026-05-07 11:00 | -33.96935 | 151.03308 | 5951 ft | 232 kts | 246° |
| 2026-05-07 11:00 | -33.97493 | 151.01416 | 5712 ft | 242 kts | 245° |
| 2026-05-07 11:00 | -33.98045 | 150.99520 | 5447 ft | 243 kts | 252° |
| 2026-05-07 11:01 | -33.97941 | 150.97477 | 5242 ft | 256 kts | 287° |
| 2026-05-07 11:01 | -33.96972 | 150.95649 | 5155 ft | 261 kts | 298° |
| 2026-05-07 11:01 | -33.95935 | 150.93830 | 5098 ft | 265 kts | 295° |
| 2026-05-07 11:01 | -33.94975 | 150.91931 | 5058 ft | 266 kts | 292° |
| 2026-05-07 11:02 | -33.94076 | 150.90001 | 5023 ft | 262 kts | 290° |
| 2026-05-07 11:02 | -33.93233 | 150.88073 | 5017 ft | 258 kts | 289° |
| 2026-05-07 11:02 | -33.92433 | 150.86154 | 5012 ft | 255 kts | 288° |
| 2026-05-07 11:02 | -33.91660 | 150.84234 | 5021 ft | 256 kts | 288° |
| 2026-05-07 11:03 | -33.90892 | 150.82281 | 5030 ft | 260 kts | 287° |
| 2026-05-07 11:03 | -33.90123 | 150.80299 | 5028 ft | 261 kts | 287° |
| 2026-05-07 11:03 | -33.89362 | 150.78319 | 5023 ft | 260 kts | 287° |
| 2026-05-07 11:03 | -33.88610 | 150.76348 | 5015 ft | 259 kts | 287° |
| 2026-05-07 11:04 | -33.87871 | 150.74403 | 5011 ft | 257 kts | 286° |
| 2026-05-07 11:04 | -33.87130 | 150.72443 | 5018 ft | 256 kts | 286° |
| 2026-05-07 11:04 | -33.86396 | 150.70497 | 5020 ft | 255 kts | 286° |
| 2026-05-07 11:04 | -33.85666 | 150.68561 | 5025 ft | 254 kts | 286° |
| 2026-05-07 11:05 | -33.84936 | 150.66623 | 5032 ft | 254 kts | 286° |
| 2026-05-07 11:05 | -33.84206 | 150.64683 | 5027 ft | 254 kts | 286° |
| 2026-05-07 11:05 | -33.83476 | 150.62743 | 5040 ft | 255 kts | 286° |
| 2026-05-07 11:05 | -33.82744 | 150.60796 | 5129 ft | 257 kts | 286° |
| 2026-05-07 11:06 | -33.82012 | 150.58845 | 5765 ft | 263 kts | 287° |
| 2026-05-07 11:06 | -33.81238 | 150.56786 | 6491 ft | 269 kts | 287° |
| 2026-05-07 11:06 | -33.80470 | 150.54753 | 7240 ft | 271 kts | 288° |
| 2026-05-07 11:06 | -33.79687 | 150.52673 | 7993 ft | 273 kts | 288° |
| 2026-05-07 11:07 | -33.78900 | 150.50589 | 8753 ft | 275 kts | 289° |
| 2026-05-07 11:07 | -33.78097 | 150.48477 | 9497 ft | 278 kts | 289° |
| 2026-05-07 11:07 | -33.77289 | 150.46345 | 10239 ft | 281 kts | 289° |
| 2026-05-07 11:07 | -33.76466 | 150.44159 | 10648 ft | 296 kts | 287° |
| 2026-05-07 11:08 | -33.75586 | 150.41810 | 10826 ft | 320 kts | 288° |
| 2026-05-07 11:08 | -33.74649 | 150.39319 | 11015 ft | 342 kts | 288° |
| 2026-05-07 11:08 | -33.73637 | 150.36660 | 11501 ft | 356 kts | 288° |
| 2026-05-07 11:08 | -33.72580 | 150.33893 | 12239 ft | 364 kts | 287° |
| 2026-05-07 11:09 | -33.71531 | 150.31141 | 13046 ft | 369 kts | 285° |
| 2026-05-07 11:09 | -33.70579 | 150.28271 | 13799 ft | 372 kts | 279° |
| 2026-05-07 11:09 | -33.69772 | 150.25265 | 14443 ft | 380 kts | 278° |
| 2026-05-07 11:09 | -33.68959 | 150.22214 | 15166 ft | 385 kts | 278° |
| 2026-05-07 11:10 | -33.68142 | 150.19162 | 15942 ft | 389 kts | 278° |
| 2026-05-07 11:10 | -33.67307 | 150.16066 | 16731 ft | 393 kts | 278° |
| 2026-05-07 11:10 | -33.66459 | 150.12926 | 17483 ft | 397 kts | 278° |
| 2026-05-07 11:10 | -33.65597 | 150.09764 | 18281 ft | 400 kts | 278° |
| 2026-05-07 11:11 | -33.64726 | 150.06580 | 19003 ft | 403 kts | 279° |
| 2026-05-07 11:11 | -33.63846 | 150.03367 | 19752 ft | 405 kts | 279° |
| 2026-05-07 11:11 | -33.62963 | 150.00149 | 20467 ft | 407 kts | 279° |
| 2026-05-07 11:11 | -33.62072 | 149.96905 | 21172 ft | 410 kts | 279° |
| 2026-05-07 11:12 | -33.61180 | 149.93655 | 21857 ft | 412 kts | 279° |
| 2026-05-07 11:12 | -33.60280 | 149.90380 | 22525 ft | 414 kts | 279° |
| 2026-05-07 11:12 | -33.59373 | 149.87083 | 23130 ft | 417 kts | 280° |
| 2026-05-07 11:12 | -33.58459 | 149.83764 | 23743 ft | 421 kts | 280° |
| 2026-05-07 11:13 | -33.57536 | 149.80414 | 24259 ft | 424 kts | 280° |
| 2026-05-07 11:13 | -33.56610 | 149.77054 | 24744 ft | 427 kts | 280° |
| 2026-05-07 11:13 | -33.55670 | 149.73652 | 25224 ft | 431 kts | 280° |
| 2026-05-07 11:13 | -33.54720 | 149.70219 | 25694 ft | 434 kts | 281° |
| 2026-05-07 11:14 | -33.53778 | 149.66817 | 26148 ft | 438 kts | 281° |
| 2026-05-07 11:14 | -33.52812 | 149.63334 | 26606 ft | 441 kts | 281° |
| 2026-05-07 11:14 | -33.51841 | 149.59837 | 27004 ft | 444 kts | 281° |
| 2026-05-07 11:14 | -33.50859 | 149.56307 | 27400 ft | 448 kts | 281° |
| 2026-05-07 11:15 | -33.49867 | 149.52741 | 27804 ft | 452 kts | 281° |
| 2026-05-07 11:15 | -33.48868 | 149.49157 | 28224 ft | 455 kts | 281° |
| 2026-05-07 11:15 | -33.47861 | 149.45551 | 28622 ft | 458 kts | 281° |
| 2026-05-07 11:15 | -33.46847 | 149.41922 | 28997 ft | 461 kts | 281° |
| 2026-05-07 11:16 | -33.45825 | 149.38270 | 29359 ft | 464 kts | 282° |
| 2026-05-07 11:16 | -33.44796 | 149.34598 | 29698 ft | 467 kts | 282° |
| 2026-05-07 11:16 | -33.43759 | 149.30904 | 30029 ft | 469 kts | 282° |
| 2026-05-07 11:16 | -33.42715 | 149.27191 | 30407 ft | 470 kts | 282° |
| 2026-05-07 11:17 | -33.41671 | 149.23486 | 30831 ft | 468 kts | 282° |
| 2026-05-07 11:17 | -33.40629 | 149.19796 | 31265 ft | 467 kts | 282° |
| 2026-05-07 11:17 | -33.39592 | 149.16122 | 31652 ft | 465 kts | 282° |
| 2026-05-07 11:17 | -33.38557 | 149.12458 | 32020 ft | 465 kts | 282° |
| 2026-05-07 11:18 | -33.37534 | 149.08839 | 32351 ft | 465 kts | 282° |
| 2026-05-07 11:18 | -33.36499 | 149.05178 | 32722 ft | 464 kts | 283° |
| 2026-05-07 11:18 | -33.35467 | 149.01533 | 33060 ft | 462 kts | 283° |
| 2026-05-07 11:18 | -33.34434 | 148.97894 | 33432 ft | 461 kts | 283° |
| 2026-05-07 11:19 | -33.33399 | 148.94254 | 33796 ft | 460 kts | 284° |
| 2026-05-07 11:19 | -33.32369 | 148.90637 | 34150 ft | 459 kts | 284° |
| 2026-05-07 11:19 | -33.30295 | 148.83350 | 34312 ft | 464 kts | 284° |
| 2026-05-07 11:20 | -33.28216 | 148.76079 | 34286 ft | 459 kts | 284° |
| 2026-05-07 11:20 | -33.26170 | 148.68937 | 34307 ft | 456 kts | 284° |
| 2026-05-07 11:21 | -33.24110 | 148.61761 | 34297 ft | 456 kts | 284° |
| 2026-05-07 11:21 | -33.22398 | 148.55808 | 34311 ft | 457 kts | 284° |
| 2026-05-07 11:22 | -33.19977 | 148.47414 | 34286 ft | 458 kts | 284° |
| 2026-05-07 11:22 | -33.17900 | 148.40232 | 34299 ft | 457 kts | 284° |
| 2026-05-07 11:23 | -33.16173 | 148.34270 | 34307 ft | 457 kts | 284° |
| 2026-05-07 11:23 | -33.13703 | 148.25948 | 34307 ft | 459 kts | 288° |
| 2026-05-07 11:24 | -33.11295 | 148.20220 | 34306 ft | 464 kts | 297° |
| 2026-05-07 11:24 | -33.07769 | 148.13782 | 34317 ft | 465 kts | 298° |
| 2026-05-07 11:25 | -33.04233 | 148.07343 | 34305 ft | 464 kts | 298° |
| 2026-05-07 11:25 | -33.00719 | 148.00903 | 34311 ft | 462 kts | 298° |
| 2026-05-07 11:26 | -32.97245 | 147.94522 | 34312 ft | 462 kts | 298° |
| 2026-05-07 11:26 | -32.93752 | 147.88111 | 34308 ft | 461 kts | 298° |
| 2026-05-07 11:27 | -32.90259 | 147.81714 | 34315 ft | 461 kts | 298° |
| 2026-05-07 11:27 | -32.86757 | 147.75310 | 34319 ft | 461 kts | 298° |
| 2026-05-07 11:28 | -32.83251 | 147.68912 | 34324 ft | 462 kts | 299° |
| 2026-05-07 11:28 | -32.79736 | 147.62510 | 34313 ft | 462 kts | 299° |
| 2026-05-07 11:29 | -32.76226 | 147.56127 | 34329 ft | 463 kts | 299° |
| 2026-05-07 11:29 | -32.72697 | 147.49721 | 34328 ft | 464 kts | 300° |
| 2026-05-07 11:30 | -32.69154 | 147.43300 | 34330 ft | 465 kts | 300° |
| 2026-05-07 11:30 | -32.65621 | 147.36908 | 34313 ft | 465 kts | 300° |
| 2026-05-07 11:31 | -32.62069 | 147.30495 | 34334 ft | 465 kts | 300° |
| 2026-05-07 11:31 | -32.58514 | 147.24086 | 34346 ft | 465 kts | 300° |
| 2026-05-07 11:32 | -32.53197 | 147.14522 | 34331 ft | 461 kts | 300° |
| 2026-05-07 11:33 | -32.49671 | 147.08193 | 34326 ft | 459 kts | 300° |
| 2026-05-07 11:33 | -32.46186 | 147.01947 | 34345 ft | 457 kts | 300° |
| 2026-05-07 11:34 | -32.42678 | 146.95669 | 34338 ft | 456 kts | 300° |
| 2026-05-07 11:34 | -32.39174 | 146.89408 | 34348 ft | 457 kts | 300° |
| 2026-05-07 11:35 | -32.35646 | 146.83116 | 34345 ft | 458 kts | 301° |
| 2026-05-07 11:35 | -32.32144 | 146.76881 | 34353 ft | 458 kts | 301° |
| 2026-05-07 11:36 | -32.28607 | 146.70594 | 34360 ft | 459 kts | 301° |
| 2026-05-07 11:36 | -32.25062 | 146.64303 | 34361 ft | 460 kts | 301° |
| 2026-05-07 11:37 | -32.21514 | 146.58018 | 34355 ft | 460 kts | 301° |
| 2026-05-07 11:37 | -32.17972 | 146.51754 | 34359 ft | 460 kts | 301° |
| 2026-05-07 11:38 | -32.14413 | 146.45471 | 34363 ft | 460 kts | 301° |
| 2026-05-07 11:38 | -32.10853 | 146.39194 | 34365 ft | 459 kts | 301° |
| 2026-05-07 11:39 | -32.07303 | 146.32948 | 34361 ft | 457 kts | 301° |
| 2026-05-07 11:39 | -32.03783 | 146.26764 | 34360 ft | 454 kts | 301° |
| 2026-05-07 11:40 | -32.00263 | 146.20589 | 34364 ft | 453 kts | 301° |
| 2026-05-07 11:40 | -31.96773 | 146.14476 | 34373 ft | 452 kts | 301° |
| 2026-05-07 11:41 | -31.93251 | 146.08317 | 34375 ft | 453 kts | 301° |
| 2026-05-07 11:41 | -31.89728 | 146.02165 | 34364 ft | 454 kts | 301° |
| 2026-05-07 11:42 | -31.86188 | 145.95995 | 34372 ft | 455 kts | 301° |
| 2026-05-07 11:42 | -31.82639 | 145.89819 | 34375 ft | 456 kts | 301° |
| 2026-05-07 11:43 | -31.79095 | 145.83662 | 34386 ft | 457 kts | 301° |
| 2026-05-07 11:43 | -31.75528 | 145.77476 | 34369 ft | 457 kts | 301° |